createdAt,value
2018-03-26T00:01:25.262Z,23.60
2018-03-26T00:03:52.756Z,21.63
2018-03-26T00:06:20.264Z,17.80
2018-03-26T00:08:47.766Z,17.57
2018-03-26T00:11:15.264Z,17.47
2018-03-26T00:13:43.534Z,22.07
2018-03-26T00:16:11.808Z,21.27
2018-03-26T00:18:39.311Z,18.70
2018-03-26T00:21:06.840Z,17.40
2018-03-26T00:23:34.333Z,25.13
2018-03-26T00:26:01.831Z,21.13
2018-03-26T00:28:29.332Z,26.03
2018-03-26T00:30:56.852Z,22.33
2018-03-26T00:33:25.125Z,21.67
2018-03-26T00:35:53.387Z,19.57
2018-03-26T00:38:20.896Z,22.40
2018-03-26T00:40:48.403Z,16.30
2018-03-26T00:43:15.907Z,21.73
2018-03-26T00:45:43.419Z,16.40
2018-03-26T00:48:10.930Z,17.90
2018-03-26T00:50:38.423Z,16.33
2018-03-26T00:53:05.922Z,18.10
2018-03-26T00:55:33.433Z,25.10
2018-03-26T00:58:00.939Z,22.23
2018-03-26T01:00:28.438Z,17.17
2018-03-26T01:02:55.943Z,18.37
2018-03-26T01:05:24.208Z,20.77
2018-03-26T01:07:52.480Z,14.17
2018-03-26T01:10:20.007Z,19.77
2018-03-26T01:12:47.515Z,23.33
2018-03-26T01:15:15.771Z,18.17
2018-03-26T01:17:43.270Z,18.67
2018-03-26T01:20:10.768Z,16.13
2018-03-26T01:22:38.270Z,19.77
2018-03-26T01:25:06.523Z,20.93
2018-03-26T01:27:34.028Z,13.00
2018-03-26T01:30:01.545Z,19.67
2018-03-26T01:32:29.158Z,16.80
2018-03-26T01:34:56.734Z,25.93
2018-03-26T01:37:24.297Z,18.07
2018-03-26T01:39:51.844Z,18.57
2018-03-26T01:42:19.380Z,17.53
2018-03-26T01:44:47.686Z,15.70
2018-03-26T01:47:15.245Z,26.80
2018-03-26T01:49:42.792Z,24.70
2018-03-26T01:52:10.366Z,15.77
2018-03-26T01:54:37.964Z,17.50
2018-03-26T01:57:05.572Z,14.93
2018-03-26T01:59:33.161Z,15.57
2018-03-26T02:02:00.744Z,16.73
2018-03-26T02:04:28.312Z,22.07
2018-03-26T02:06:55.860Z,16.03
2018-03-26T02:09:23.426Z,17.63
2018-03-26T02:11:50.972Z,18.97
2018-03-26T02:14:18.580Z,14.27
2018-03-26T02:16:46.873Z,16.87
2018-03-26T02:19:14.409Z,13.97
2018-03-26T02:21:41.970Z,19.20
2018-03-26T02:24:09.518Z,14.87
2018-03-26T02:26:37.121Z,18.37
2018-03-26T02:29:04.604Z,31.13
2018-03-26T02:31:32.136Z,30.50
2018-03-26T02:33:59.691Z,27.03
2018-03-26T02:36:27.258Z,17.50
2018-03-26T02:38:54.814Z,20.27
2018-03-26T02:41:22.367Z,19.60
2018-03-26T02:43:49.934Z,16.07
2018-03-26T02:46:17.489Z,18.07
2018-03-26T02:48:45.046Z,17.73
2018-03-26T02:51:12.597Z,21.50
2018-03-26T02:53:40.141Z,18.57
2018-03-26T02:56:08.484Z,19.43
2018-03-26T02:58:36.029Z,20.43
2018-03-26T03:01:03.646Z,24.53
2018-03-26T03:03:31.965Z,24.17
2018-03-26T03:05:59.541Z,20.20
2018-03-26T03:08:27.084Z,27.33
2018-03-26T03:10:54.657Z,22.00
2018-03-26T03:13:22.204Z,24.17
2018-03-26T03:15:49.802Z,19.03
2018-03-26T03:18:17.324Z,17.47
2018-03-26T03:20:44.871Z,18.07
2018-03-26T03:23:12.413Z,19.97
2018-03-26T03:25:39.984Z,21.10
2018-03-26T03:28:07.547Z,18.57
2018-03-26T03:30:35.127Z,25.30
2018-03-26T03:33:02.701Z,21.50
2018-03-26T03:35:30.252Z,18.20
2018-03-26T03:37:57.857Z,19.70
2018-03-26T03:40:25.404Z,16.20
2018-03-26T03:42:53.727Z,16.80
2018-03-26T03:45:21.349Z,15.97
2018-03-26T03:47:49.713Z,18.10
2018-03-26T03:50:18.037Z,14.80
2018-03-26T03:52:45.589Z,19.67
2018-03-26T03:55:13.132Z,18.13
2018-03-26T03:57:41.453Z,25.03
2018-03-26T04:00:09.092Z,18.33
2018-03-26T04:02:36.607Z,19.67
2018-03-26T04:05:04.985Z,17.47
2018-03-26T04:07:32.531Z,22.03
2018-03-26T04:10:00.077Z,21.23
2018-03-26T04:12:27.636Z,18.23
2018-03-26T04:14:55.212Z,19.57
2018-03-26T04:17:22.798Z,23.20
2018-03-26T04:19:50.346Z,22.93
2018-03-26T04:22:17.898Z,19.57
2018-03-26T04:24:45.425Z,19.57
2018-03-26T04:27:12.970Z,26.37
2018-03-26T04:29:40.566Z,21.33
2018-03-26T04:32:08.225Z,22.03
2018-03-26T04:34:35.742Z,19.17
2018-03-26T04:37:03.306Z,19.10
2018-03-26T04:39:30.891Z,24.10
2018-03-26T04:41:58.443Z,22.07
2018-03-26T04:44:26.020Z,20.13
2018-03-26T04:46:53.572Z,17.30
2018-03-26T04:49:21.125Z,20.20
2018-03-26T04:51:48.666Z,17.27
2018-03-26T04:54:16.238Z,25.93
2018-03-26T04:56:43.817Z,24.57
2018-03-26T04:59:11.430Z,22.13
2018-03-26T05:01:39.745Z,20.50
2018-03-26T05:04:07.327Z,19.93
2018-03-26T05:06:34.937Z,18.77
2018-03-26T05:09:02.574Z,21.73
2018-03-26T05:11:30.188Z,22.33
2018-03-26T05:13:57.731Z,22.77
2018-03-26T05:16:25.425Z,19.33
2018-03-26T05:18:53.045Z,22.20
2018-03-26T05:21:20.594Z,23.37
2018-03-26T05:23:48.163Z,21.10
2018-03-26T05:26:15.733Z,19.10
2018-03-26T05:28:43.357Z,23.00
2018-03-26T05:31:10.962Z,23.57
2018-03-26T05:33:38.680Z,23.90
2018-03-26T05:36:07.066Z,21.63
2018-03-26T05:38:35.427Z,20.57
2018-03-26T05:41:03.028Z,18.40
2018-03-26T05:43:30.612Z,22.30
2018-03-26T05:45:58.968Z,35.00
2018-03-26T05:48:26.513Z,27.77
2018-03-26T05:50:54.094Z,28.63
2018-03-26T05:53:21.628Z,26.40
2018-03-26T05:55:49.201Z,29.63
2018-03-26T05:58:16.760Z,23.03
2018-03-26T06:00:44.480Z,18.50
2018-03-26T06:03:12.066Z,24.17
2018-03-26T06:05:40.936Z,23.80
2018-03-26T06:08:08.500Z,22.27
2018-03-26T06:10:36.034Z,21.80
2018-03-26T06:13:04.338Z,19.70
2018-03-26T06:15:31.934Z,20.63
2018-03-26T06:17:59.423Z,23.37
2018-03-26T06:20:26.963Z,25.80
2018-03-26T06:22:54.527Z,23.17
2018-03-26T06:25:22.111Z,23.40
2018-03-26T06:27:49.705Z,21.73
2018-03-26T06:30:17.295Z,22.40
2018-03-26T06:32:44.903Z,21.63
2018-03-26T06:35:12.465Z,22.83
2018-03-26T06:37:45.797Z,28.13
2018-03-26T06:40:14.134Z,23.83
2018-03-26T06:42:41.704Z,23.97
2018-03-26T06:45:09.308Z,24.00
2018-03-26T06:47:36.944Z,25.20
2018-03-26T06:50:04.516Z,23.47
2018-03-26T06:52:32.850Z,23.30
2018-03-26T06:55:00.404Z,22.07
2018-03-26T06:57:28.003Z,24.73
2018-03-26T06:59:56.387Z,21.57
2018-03-26T07:02:24.003Z,27.40
2018-03-26T07:04:51.635Z,26.10
2018-03-26T07:07:19.280Z,31.93
2018-03-26T07:09:46.837Z,25.33
2018-03-26T07:12:15.201Z,22.27
2018-03-26T07:14:43.501Z,21.73
2018-03-26T07:17:12.764Z,24.03
2018-03-26T07:19:40.307Z,28.57
2018-03-26T07:22:07.945Z,22.60
2018-03-26T07:24:35.549Z,29.30
2018-03-26T07:27:03.336Z,24.57
2018-03-26T07:29:35.625Z,29.10
2018-03-26T07:32:03.316Z,23.77
2018-03-26T07:34:30.976Z,23.47
2018-03-26T07:36:58.502Z,24.10
2018-03-26T07:39:26.114Z,26.53
2018-03-26T07:41:53.669Z,25.77
2018-03-26T07:44:21.217Z,28.07
2018-03-26T07:46:48.793Z,27.13
2018-03-26T07:49:16.436Z,29.20
2018-03-26T07:51:51.286Z,25.63
2018-03-26T07:54:18.885Z,21.87
2018-03-26T07:56:46.452Z,28.70
2018-03-26T07:59:14.024Z,29.80
2018-03-26T08:01:41.790Z,22.20
2018-03-26T08:04:09.380Z,26.07
2018-03-26T08:06:36.923Z,25.57
2018-03-26T08:09:04.472Z,26.97
2018-03-26T08:11:32.053Z,25.80
2018-03-26T08:13:59.756Z,29.37
2018-03-26T08:16:28.109Z,28.37
2018-03-26T08:18:55.697Z,31.80
2018-03-26T08:21:25.415Z,33.57
2018-03-26T08:23:52.965Z,30.70
2018-03-26T08:26:21.343Z,30.80
2018-03-26T08:28:49.662Z,32.47
2018-03-26T08:31:17.282Z,30.13
2018-03-26T08:33:50.147Z,28.00
2018-03-26T08:36:17.695Z,29.47
2018-03-26T08:38:45.244Z,29.73
2018-03-26T08:41:12.819Z,31.23
2018-03-26T08:43:40.360Z,32.13
2018-03-26T08:46:07.966Z,31.93
2018-03-26T08:48:35.558Z,31.23
2018-03-26T08:51:03.165Z,30.97
2018-03-26T08:53:30.701Z,32.33
2018-03-26T08:55:58.298Z,27.47
2018-03-26T08:58:26.621Z,29.93
2018-03-26T09:00:54.981Z,31.30
2018-03-26T09:03:23.894Z,30.27
2018-03-26T09:05:51.541Z,28.53
2018-03-26T09:08:19.073Z,30.97
2018-03-26T09:10:46.605Z,31.47
2018-03-26T09:13:14.171Z,31.67
2018-03-26T09:15:42.497Z,30.93
2018-03-26T09:18:10.058Z,28.70
2018-03-26T09:20:44.632Z,30.80
2018-03-26T09:23:12.168Z,30.33
2018-03-26T09:25:39.981Z,27.87
2018-03-26T09:28:08.780Z,29.50
2018-03-26T09:30:36.420Z,31.23
2018-03-26T09:33:04.078Z,34.33
2018-03-26T09:35:33.036Z,32.60
2018-03-26T09:38:00.601Z,30.23
2018-03-26T09:40:28.221Z,30.33
2018-03-26T09:42:56.548Z,33.33
2018-03-26T09:45:24.219Z,38.93
2018-03-26T09:47:52.521Z,29.57
2018-03-26T09:50:20.076Z,28.37
2018-03-26T09:52:47.602Z,27.03
2018-03-26T09:55:15.150Z,29.70
2018-03-26T09:57:42.724Z,28.83
2018-03-26T10:00:10.273Z,35.13
2018-03-26T10:02:37.834Z,28.40
2018-03-26T10:05:05.397Z,28.67
2018-03-26T10:07:32.959Z,28.13
2018-03-26T10:10:00.536Z,29.30
2018-03-26T10:12:28.846Z,30.57
2018-03-26T10:14:56.409Z,30.87
2018-03-26T10:17:23.967Z,32.27
2018-03-26T10:19:52.730Z,31.80
2018-03-26T10:22:21.199Z,35.90
2018-03-26T10:24:49.519Z,32.80
2018-03-26T10:27:17.066Z,26.60
2018-03-26T10:29:44.645Z,29.43
2018-03-26T10:32:12.209Z,31.50
2018-03-26T10:34:39.776Z,32.70
2018-03-26T10:37:07.402Z,29.63
2018-03-26T10:39:34.988Z,28.37
2018-03-26T10:42:02.552Z,31.13
2018-03-26T10:44:30.139Z,38.10
2018-03-26T10:46:57.792Z,33.23
2018-03-26T10:49:25.384Z,30.77
2018-03-26T10:51:53.700Z,32.60
2018-03-26T10:54:21.261Z,32.40
2018-03-26T10:56:48.828Z,32.80
2018-03-26T10:59:16.381Z,33.50
2018-03-26T11:01:43.940Z,35.00
2018-03-26T11:04:11.480Z,28.10
2018-03-26T11:06:39.001Z,34.67
2018-03-26T11:09:06.612Z,32.33
2018-03-26T11:11:34.210Z,32.07
2018-03-26T11:14:01.813Z,31.30
2018-03-26T11:16:30.164Z,33.50
2018-03-26T11:18:57.712Z,36.07
2018-03-26T11:21:25.268Z,30.60
2018-03-26T11:23:52.817Z,27.97
2018-03-26T11:26:20.396Z,31.03
2018-03-26T11:28:48.716Z,30.47
2018-03-26T11:31:17.064Z,32.70
2018-03-26T11:33:44.616Z,33.20
2018-03-26T11:36:12.228Z,34.30
2018-03-26T11:38:39.826Z,31.53
2018-03-26T11:41:07.393Z,29.23
2018-03-26T11:43:35.000Z,30.57
2018-03-26T11:46:03.369Z,32.97
2018-03-26T11:48:31.703Z,33.50
2018-03-26T11:50:59.262Z,30.47
2018-03-26T11:53:26.816Z,34.83
2018-03-26T11:55:54.388Z,29.20
2018-03-26T11:58:21.928Z,31.10
2018-03-26T12:00:49.516Z,28.40
2018-03-26T12:03:17.058Z,30.30
2018-03-26T12:05:44.618Z,30.97
2018-03-26T12:08:12.168Z,28.27
2018-03-26T12:10:39.746Z,31.07
2018-03-26T12:13:07.336Z,32.30
2018-03-26T12:15:34.897Z,33.73
2018-03-26T12:18:02.468Z,31.00
2018-03-26T12:20:41.759Z,31.57
2018-03-26T12:26:10.223Z,29.10
2018-03-26T12:28:50.414Z,32.13
2018-03-26T12:31:17.910Z,34.13
2018-03-26T12:33:57.788Z,32.27
2018-03-26T12:36:25.286Z,31.23
2018-03-26T12:38:52.778Z,30.00
2018-03-26T12:41:20.274Z,31.60
2018-03-26T12:43:48.157Z,26.80
2018-03-26T12:46:27.590Z,27.27
2018-03-26T12:48:55.149Z,30.97
2018-03-26T12:51:34.470Z,28.77
2018-03-26T12:54:02.919Z,26.97
2018-03-26T12:56:31.310Z,30.77
2018-03-26T12:58:58.794Z,29.47
2018-03-26T13:01:39.066Z,29.43
2018-03-26T13:04:06.642Z,29.17
2018-03-26T13:06:34.159Z,37.77
2018-03-26T13:09:15.021Z,34.30
2018-03-26T13:11:42.525Z,33.47
2018-03-26T13:14:10.031Z,29.07
2018-03-26T13:16:37.522Z,35.80
2018-03-26T13:19:05.035Z,33.83
2018-03-26T13:21:32.550Z,31.90
2018-03-26T13:24:00.043Z,29.10
2018-03-26T13:26:27.550Z,33.97
2018-03-26T13:28:55.828Z,33.43
2018-03-26T13:31:23.427Z,32.37
2018-03-26T13:33:50.950Z,29.73
2018-03-26T13:36:18.464Z,31.07
2018-03-26T13:38:47.971Z,27.43
2018-03-26T13:41:15.586Z,28.60
2018-03-26T13:43:43.114Z,32.07
2018-03-26T13:46:11.362Z,31.37
2018-03-26T13:48:38.854Z,32.17
2018-03-26T13:51:07.105Z,32.80
2018-03-26T13:53:34.585Z,29.67
2018-03-26T13:56:02.848Z,32.33
2018-03-26T13:58:30.438Z,33.23
2018-03-26T14:00:58.691Z,36.73
2018-03-26T14:03:29.590Z,30.47
2018-03-26T14:05:57.086Z,32.53
2018-03-26T14:08:36.514Z,33.47
2018-03-26T14:11:16.088Z,35.70
2018-03-26T14:13:55.646Z,51.10
2018-03-26T14:16:35.074Z,50.20
2018-03-26T14:19:02.587Z,38.47
2018-03-26T14:21:30.530Z,35.40
2018-03-26T14:23:58.106Z,34.20
2018-03-26T14:26:25.601Z,32.97
2018-03-26T14:28:53.114Z,33.43
2018-03-26T14:31:20.606Z,36.17
2018-03-26T14:33:48.092Z,32.37
2018-03-26T14:36:16.352Z,34.90
2018-03-26T14:38:43.835Z,33.67
2018-03-26T14:41:11.326Z,37.33
2018-03-26T14:43:38.810Z,31.53
2018-03-26T14:46:06.301Z,35.77
2018-03-26T14:48:34.880Z,35.40
2018-03-26T14:51:03.129Z,36.60
2018-03-26T14:53:31.568Z,36.17
2018-03-26T14:55:59.058Z,32.50
2018-03-26T14:58:26.545Z,31.60
2018-03-26T15:00:54.037Z,39.77
2018-03-26T15:03:21.527Z,31.60
2018-03-26T15:05:49.014Z,36.23
2018-03-26T15:08:16.498Z,29.10
2018-03-26T15:10:44.013Z,29.90
2018-03-26T15:13:11.666Z,36.07
2018-03-26T15:15:39.158Z,34.13
2018-03-26T15:18:07.415Z,35.33
2018-03-26T15:20:34.901Z,32.97
2018-03-26T15:23:08.830Z,34.60
2018-03-26T15:25:36.317Z,38.70
2018-03-26T15:28:03.811Z,31.40
2018-03-26T15:30:31.304Z,36.30
2018-03-26T15:32:58.794Z,35.77
2018-03-26T15:35:26.289Z,29.37
2018-03-26T15:38:03.902Z,30.00
2018-03-26T15:40:32.151Z,40.20
2018-03-26T15:43:03.654Z,44.77
2018-03-26T15:45:31.143Z,37.93
2018-03-26T15:47:58.634Z,34.53
2018-03-26T15:50:26.886Z,39.60
2018-03-26T15:52:54.378Z,39.97
2018-03-26T15:55:22.721Z,31.53
2018-03-26T15:57:50.214Z,35.53
2018-03-26T16:00:18.470Z,35.07
2018-03-26T16:03:12.626Z,34.50
2018-03-26T16:05:40.115Z,38.73
2018-03-26T16:08:07.608Z,35.77
2018-03-26T16:10:35.109Z,37.00
2018-03-26T16:13:04.577Z,43.60
2018-03-26T16:15:32.105Z,36.67
2018-03-26T16:18:00.359Z,34.10
2018-03-26T16:20:27.841Z,38.40
2018-03-26T16:22:56.166Z,36.27
2018-03-26T16:25:23.726Z,36.20
2018-03-26T16:27:51.236Z,37.33
2018-03-26T16:30:19.530Z,39.47
2018-03-26T16:32:47.128Z,34.40
2018-03-26T16:35:14.630Z,35.70
2018-03-26T16:37:42.896Z,37.63
2018-03-26T16:40:18.146Z,35.60
2018-03-26T16:42:46.408Z,38.23
2018-03-26T16:45:13.893Z,36.80
2018-03-26T16:47:57.138Z,35.70
2018-03-26T16:50:24.820Z,43.90
2018-03-26T16:52:52.616Z,34.40
2018-03-26T16:55:20.138Z,34.10
2018-03-26T16:57:54.594Z,37.60
2018-03-26T17:00:22.138Z,34.87
2018-03-26T17:02:49.719Z,35.47
2018-03-26T17:05:17.288Z,31.63
2018-03-26T17:07:44.906Z,30.60
2018-03-26T17:10:12.489Z,35.83
2018-03-26T17:12:39.978Z,33.13
2018-03-26T17:15:07.478Z,35.50
2018-03-26T17:17:35.022Z,37.17
2018-03-26T17:20:02.527Z,35.20
2018-03-26T17:22:30.027Z,32.13
2018-03-26T17:24:57.523Z,31.97
2018-03-26T17:27:25.070Z,34.10
2018-03-26T17:29:52.547Z,41.03
2018-03-26T17:32:20.851Z,33.43
2018-03-26T17:34:48.546Z,35.00
2018-03-26T17:37:16.115Z,40.37
2018-03-26T17:39:44.490Z,32.77
2018-03-26T17:42:12.092Z,36.50
2018-03-26T17:44:42.954Z,30.20
2018-03-26T17:47:10.446Z,34.80
2018-03-26T17:49:37.935Z,32.63
2018-03-26T17:52:05.428Z,43.57
2018-03-26T17:54:32.953Z,43.27
2018-03-26T17:57:01.208Z,41.20
2018-03-26T17:59:28.697Z,37.77
2018-03-26T18:01:56.955Z,34.03
2018-03-26T18:04:24.442Z,40.93
2018-03-26T18:06:59.751Z,37.87
2018-03-26T18:09:27.238Z,36.00
2018-03-26T18:11:55.494Z,35.63
2018-03-26T18:14:22.996Z,32.80
2018-03-26T18:16:50.478Z,32.57
2018-03-26T18:19:17.965Z,33.40
2018-03-26T18:21:45.450Z,34.20
2018-03-26T18:24:12.942Z,37.87
2018-03-26T18:26:40.429Z,37.83
2018-03-26T18:29:07.918Z,31.97
2018-03-26T18:31:36.174Z,41.53
2018-03-26T18:34:03.658Z,34.27
2018-03-26T18:36:36.829Z,34.00
2018-03-26T18:39:05.118Z,35.57
2018-03-26T18:41:33.508Z,32.53
2018-03-26T18:44:01.022Z,39.77
2018-03-26T18:46:28.541Z,31.80
2018-03-26T18:48:56.770Z,38.17
2018-03-26T18:51:24.255Z,33.97
2018-03-26T18:53:52.506Z,40.17
2018-03-26T18:56:19.987Z,36.50
2018-03-26T18:58:48.246Z,35.13
2018-03-26T19:01:16.566Z,35.23
2018-03-26T19:03:44.058Z,35.57
2018-03-26T19:06:11.551Z,33.77
2018-03-26T19:08:39.801Z,42.37
2018-03-26T19:11:07.299Z,35.53
2018-03-26T19:13:34.790Z,37.07
2018-03-26T19:16:02.270Z,33.30
2018-03-26T19:18:30.528Z,49.10
2018-03-26T19:20:58.011Z,40.37
2018-03-26T19:23:25.522Z,41.00
2018-03-26T19:25:53.026Z,40.23
2018-03-26T19:28:20.955Z,43.70
2018-03-26T19:30:48.474Z,42.50
2018-03-26T19:33:15.953Z,35.50
2018-03-26T19:35:43.425Z,34.47
2018-03-26T19:38:11.674Z,35.53
2018-03-26T19:40:39.147Z,39.43
2018-03-26T19:43:06.625Z,35.53
2018-03-26T19:45:34.100Z,33.50
2018-03-26T19:48:01.593Z,32.30
2018-03-26T19:50:29.915Z,44.07
2018-03-26T19:55:49.848Z,35.10
2018-03-26T19:58:17.324Z,32.93
2018-03-26T20:00:44.788Z,37.67
2018-03-26T20:03:12.285Z,39.30
2018-03-26T20:05:39.748Z,35.40
2018-03-26T20:08:07.231Z,33.50
2018-03-26T20:10:35.062Z,43.30
2018-03-26T20:13:03.284Z,37.67
2018-03-26T20:15:30.764Z,36.30
2018-03-26T20:17:58.240Z,36.73
2018-03-26T20:20:27.626Z,33.57
2018-03-26T20:22:55.136Z,42.20
2018-03-26T20:25:22.610Z,37.60
2018-03-26T20:27:50.848Z,34.20
2018-03-26T20:30:18.323Z,39.83
2018-03-26T20:32:45.788Z,34.03
2018-03-26T20:35:13.300Z,34.07
2018-03-26T20:37:41.107Z,38.07
2018-03-26T20:40:08.583Z,36.60
2018-03-26T20:42:36.077Z,41.97
2018-03-26T20:45:03.608Z,38.23
2018-03-26T20:47:31.145Z,30.73
2018-03-26T20:49:58.653Z,31.53
2018-03-26T20:52:26.140Z,32.87
2018-03-26T20:54:53.641Z,35.60
2018-03-26T20:57:21.136Z,37.83
2018-03-26T20:59:49.163Z,36.03
2018-03-26T21:02:16.742Z,36.00
2018-03-26T21:04:44.277Z,37.13
2018-03-26T21:07:12.582Z,36.17
2018-03-26T21:09:40.081Z,33.37
2018-03-26T21:12:07.615Z,31.87
2018-03-26T21:14:35.890Z,37.47
2018-03-26T21:17:04.225Z,39.87
2018-03-26T21:19:31.784Z,38.37
2018-03-26T21:21:59.301Z,34.77
2018-03-26T21:24:27.568Z,44.30
2018-03-26T21:26:55.089Z,42.23
2018-03-26T21:29:22.625Z,36.67
2018-03-26T21:31:50.143Z,34.00
2018-03-26T21:34:18.427Z,39.60
2018-03-26T21:36:46.725Z,34.10
2018-03-26T21:39:14.229Z,37.07
2018-03-26T21:41:52.417Z,36.33
2018-03-26T21:44:19.921Z,31.53
2018-03-26T21:46:47.420Z,34.50
2018-03-26T21:49:14.955Z,33.50
2018-03-26T21:51:42.456Z,36.63
2018-03-26T21:54:09.998Z,32.80
2018-03-26T21:56:37.518Z,31.97
2018-03-26T21:59:05.046Z,37.33
2018-03-26T22:01:32.565Z,34.97
2018-03-26T22:04:00.858Z,42.77
2018-03-26T22:06:29.140Z,35.17
2018-03-26T22:08:57.463Z,36.93
2018-03-26T22:11:25.022Z,34.03
2018-03-26T22:13:53.317Z,37.17
2018-03-26T22:16:20.813Z,42.23
2018-03-26T22:18:48.357Z,33.50
2018-03-26T22:21:15.869Z,47.87
2018-03-26T22:23:43.406Z,36.57
2018-03-26T22:26:11.000Z,37.67
2018-03-26T22:28:38.524Z,35.07
2018-03-26T22:31:06.818Z,49.10
2018-03-26T22:33:35.257Z,38.83
2018-03-26T22:36:02.763Z,43.70
2018-03-26T22:38:30.235Z,45.07
2018-03-26T22:40:57.921Z,46.13
2018-03-26T22:43:26.222Z,41.50
2018-03-26T22:45:54.672Z,38.60
2018-03-26T22:48:22.285Z,40.93
2018-03-26T22:50:50.580Z,32.07
2018-03-26T22:53:18.117Z,36.87
2018-03-26T22:55:45.676Z,39.77
2018-03-26T22:58:13.203Z,36.47
2018-03-26T23:00:40.755Z,40.17
2018-03-26T23:03:09.115Z,45.93
2018-03-26T23:05:36.708Z,39.10
2018-03-26T23:08:04.224Z,38.17
2018-03-26T23:10:31.769Z,34.67
2018-03-26T23:13:00.048Z,37.50
2018-03-26T23:15:28.333Z,36.87
2018-03-26T23:17:56.613Z,41.37
2018-03-26T23:20:27.707Z,40.80
2018-03-26T23:22:55.290Z,37.53
2018-03-26T23:25:22.799Z,48.73
2018-03-26T23:27:50.326Z,45.00
2018-03-26T23:30:17.886Z,36.93
2018-03-26T23:32:45.388Z,41.43
2018-03-26T23:35:12.942Z,38.20
2018-03-26T23:37:40.433Z,37.70
2018-03-26T23:40:07.952Z,33.63
2018-03-26T23:42:35.472Z,38.13
2018-03-26T23:45:03.005Z,39.83
2018-03-26T23:47:30.509Z,31.77
2018-03-26T23:49:58.063Z,39.87
2018-03-26T23:52:25.565Z,38.53
2018-03-26T23:54:53.099Z,45.00
2018-03-26T23:57:20.626Z,42.40
2018-03-26T23:59:48.128Z,41.47
